Time;durP1;ratioP1;P1;durP2;ratioP2;P2;SDS_P1;SDS_P2;PMS_P1;PMS_P2;Temp;Humidity;BMP_temperature;BMP_pressure;BME280_temperature;BME280_humidity;BME280_pressure;Samples;Min_cycle;Max_cycle;Signal;HPM_P1;HPM_P2
2023/07/28 00:01:52;;;;;;;;;6.67;5.67;;;;;;;;4995035;28;45403;-67
2023/07/28 00:04:18;;;;;;;;;2.00;2.00;;;;;;;;4992081;28;46329;-66
2023/07/28 00:06:43;;;;;;;;;2.00;2.00;;;;;;;;5001614;28;45548;-67
2023/07/28 00:09:08;;;;;;;;;6.67;3.33;;;;;;;;4997494;28;45419;-68
2023/07/28 00:11:33;;;;;;;;;2.00;1.33;;;;;;;;5013305;28;45355;-67
2023/07/28 00:13:59;;;;;;;;;3.67;3.67;;;;;;;;5012613;28;46393;-66
2023/07/28 00:16:24;;;;;;;;;4.00;2.75;;;;;;;;5013712;28;45708;-66
2023/07/28 00:18:49;;;;;;;;;2.00;2.00;;;;;;;;5011390;28;46619;-67
2023/07/28 00:21:15;;;;;;;;;3.00;3.00;;;;;;;;4995566;28;45762;-67
2023/07/28 00:23:40;;;;;;;;;1.25;1.25;;;;;;;;5012320;28;46745;-67
2023/07/28 00:26:06;;;;;;;;;6.00;4.33;;;;;;;;5011274;28;45747;-66
2023/07/28 00:28:31;;;;;;;;;4.33;3.33;;;;;;;;5009254;28;45771;-66
2023/07/28 00:30:56;;;;;;;;;11.67;9.00;;;;;;;;5012459;28;45621;-68
2023/07/28 00:33:21;;;;;;;;;23.67;15.00;;;;;;;;5013217;28;46319;-69
2023/07/28 00:35:47;;;;;;;;;4.00;1.67;;;;;;;;5013074;28;45496;-67
2023/07/28 00:38:12;;;;;;;;;4.67;4.00;;;;;;;;5009860;28;45379;-67
2023/07/28 00:40:37;;;;;;;;;22.67;18.67;;;;;;;;4998436;28;45384;-68
2023/07/28 00:43:02;;;;;;;;;7.00;5.67;;;;;;;;5012250;28;45932;-67
2023/07/28 00:45:29;;;;;;;;;7.00;5.33;;;;;;;;5011300;28;45697;-68
2023/07/28 00:47:57;;;;;;;;;10.00;8.67;;;;;;;;4987229;28;45272;-67
2023/07/28 00:50:22;;;;;;;;;6.00;5.33;;;;;;;;4999343;28;45765;-67
2023/07/28 00:52:49;;;;;;;;;2.00;2.00;;;;;;;;4997546;28;46363;-66
2023/07/28 00:55:14;;;;;;;;;3.33;3.33;;;;;;;;5025257;28;45614;-67
2023/07/28 00:57:39;;;;;;;;;4.67;4.67;;;;;;;;5032326;28;45492;-68
2023/07/28 01:00:05;;;;;;;;;4.00;2.00;;;;;;;;5027779;28;45530;-68
2023/07/28 01:02:31;;;;;;;;;3.00;2.00;;;;;;;;5017348;28;48030;-69
2023/07/28 01:04:56;;;;;;;;;1.75;1.75;;;;;;;;5031553;28;45388;-68
2023/07/28 01:07:30;;;;;;;;;2.75;2.75;;;;;;;;5032228;28;45817;-67
2023/07/28 01:10:10;;;;;;;;;3.00;2.25;;;;;;;;5031393;28;45865;-68
2023/07/28 01:12:35;;;;;;;;;3.25;3.25;;;;;;;;5031997;28;45337;-68
2023/07/28 01:15:01;;;;;;;;;2.50;2.50;;;;;;;;5033185;28;45528;-68
2023/07/28 01:17:26;;;;;;;;;5.50;3.25;;;;;;;;5031529;28;46154;-68
2023/07/28 01:19:51;;;;;;;;;3.25;3.25;;;;;;;;5031868;28;45738;-67
2023/07/28 01:22:30;;;;;;;;;1.50;1.50;;;;;;;;5031289;28;46246;-68
2023/07/28 01:25:00;;;;;;;;;3.25;3.00;;;;;;;;5032513;28;45662;-68
2023/07/28 01:27:27;;;;;;;;;3.75;3.75;;;;;;;;5031626;28;45736;-68
2023/07/28 01:29:52;;;;;;;;;2.75;1.75;;;;;;;;5032484;28;45786;-67
2023/07/28 01:32:18;;;;;;;;;3.00;3.00;;;;;;;;5032764;28;46372;-68
2023/07/28 01:34:43;;;;;;;;;4.50;3.25;;;;;;;;5031385;28;45497;-68
2023/07/28 01:37:08;;;;;;;;;1.00;1.00;;;;;;;;5021849;28;45863;-68
2023/07/28 01:39:34;;;;;;;;;5.25;4.00;;;;;;;;5031461;28;45334;-70
2023/07/28 01:41:59;;;;;;;;;2.75;2.75;;;;;;;;5047527;22;45650;-80
2023/07/28 01:44:24;;;;;;;;;0.75;0.75;;;;;;;;5035703;28;45404;-80
2023/07/28 01:46:49;;;;;;;;;4.25;4.00;;;;;;;;5035811;28;45596;-78
2023/07/28 01:49:14;;;;;;;;;1.75;1.00;;;;;;;;5045472;28;46705;-81
2023/07/28 01:51:40;;;;;;;;;1.00;1.00;;;;;;;;5021215;28;45920;-80
2023/07/28 01:54:05;;;;;;;;;1.00;1.00;;;;;;;;5031660;28;45443;-81
2023/07/28 01:56:30;;;;;;;;;1.50;1.50;;;;;;;;5017493;28;45824;-79
2023/07/28 01:58:56;;;;;;;;;3.75;2.00;;;;;;;;5031107;28;45487;-80
2023/07/28 02:01:21;;;;;;;;;1.00;1.00;;;;;;;;5030514;28;45357;-80
2023/07/28 02:03:46;;;;;;;;;1.75;1.00;;;;;;;;5026393;28;45843;-79
2023/07/28 02:06:11;;;;;;;;;3.00;1.50;;;;;;;;5012547;28;45767;-81
2023/07/28 02:08:37;;;;;;;;;1.25;1.25;;;;;;;;5024525;28;46328;-79
2023/07/28 02:11:02;;;;;;;;;2.25;2.00;;;;;;;;5020408;28;47389;-80
2023/07/28 02:13:27;;;;;;;;;2.75;2.75;;;;;;;;5027336;28;45456;-78
2023/07/28 02:15:53;;;;;;;;;2.00;2.00;;;;;;;;5029308;28;45843;-81
2023/07/28 02:18:18;;;;;;;;;1.50;1.00;;;;;;;;5027717;28;46501;-80
2023/07/28 02:20:43;;;;;;;;;1.00;1.00;;;;;;;;5039120;28;45255;-81
2023/07/28 02:23:08;;;;;;;;;2.00;2.00;;;;;;;;5035490;28;45830;-79
2023/07/28 02:25:34;;;;;;;;;3.75;2.25;;;;;;;;5031042;28;45457;-81
2023/07/28 02:27:59;;;;;;;;;2.00;2.00;;;;;;;;5037548;28;45530;-80
2023/07/28 02:30:24;;;;;;;;;3.50;1.00;;;;;;;;5053093;28;45501;-81
2023/07/28 02:32:50;;;;;;;;;1.00;1.00;;;;;;;;5043336;28;45697;-79
2023/07/28 02:35:15;;;;;;;;;1.50;1.50;;;;;;;;5023690;28;45336;-81
2023/07/28 02:37:41;;;;;;;;;1.00;1.00;;;;;;;;5017323;28;45954;-81
2023/07/28 02:40:07;;;;;;;;;2.00;2.00;;;;;;;;5032865;28;45450;-80
2023/07/28 02:42:33;;;;;;;;;3.75;2.25;;;;;;;;5013480;28;45741;-80
2023/07/28 02:44:59;;;;;;;;;0.50;0.50;;;;;;;;5027900;28;45905;-81
2023/07/28 02:47:24;;;;;;;;;1.00;1.00;;;;;;;;5028104;28;45389;-81
2023/07/28 02:49:49;;;;;;;;;2.25;1.25;;;;;;;;5013932;28;46822;-82
2023/07/28 02:52:15;;;;;;;;;3.50;1.00;;;;;;;;5025642;28;45424;-80
2023/07/28 02:54:40;;;;;;;;;3.00;2.00;;;;;;;;5041405;28;45469;-78
2023/07/28 02:57:05;;;;;;;;;1.75;1.50;;;;;;;;5025078;28;46771;-81
2023/07/28 02:59:31;;;;;;;;;2.00;1.00;;;;;;;;5041254;28;46424;-80
2023/07/28 03:01:57;;;;;;;;;1.00;1.00;;;;;;;;5015452;28;45904;-80
2023/07/28 03:04:22;;;;;;;;;2.25;1.00;;;;;;;;5029977;28;45420;-79
2023/07/28 03:06:48;;;;;;;;;2.00;1.00;;;;;;;;5033099;28;45595;-79
2023/07/28 03:09:13;;;;;;;;;1.00;1.00;;;;;;;;5026455;28;45991;-79
2023/07/28 03:11:38;;;;;;;;;2.00;2.00;;;;;;;;5017899;28;45432;-80
2023/07/28 03:14:04;;;;;;;;;1.25;1.25;;;;;;;;5022548;28;45846;-79
2023/07/28 03:16:29;;;;;;;;;1.50;1.00;;;;;;;;5032240;28;45834;-80
2023/07/28 03:18:54;;;;;;;;;0.75;0.75;;;;;;;;5034893;28;46298;-79
2023/07/28 03:21:20;;;;;;;;;1.00;1.00;;;;;;;;5021635;28;45425;-80
2023/07/28 03:23:45;;;;;;;;;1.00;0.25;;;;;;;;5034985;28;45399;-79
2023/07/28 03:26:10;;;;;;;;;1.00;1.00;;;;;;;;5020050;28;46838;-79
2023/07/28 03:28:36;;;;;;;;;0.50;0.50;;;;;;;;5034069;28;47421;-79
2023/07/28 03:31:01;;;;;;;;;0.75;0.75;;;;;;;;5028992;28;45729;-78
2023/07/28 03:33:26;;;;;;;;;1.00;1.00;;;;;;;;5046338;28;45485;-80
2023/07/28 03:35:52;;;;;;;;;0.00;0.00;;;;;;;;5043607;28;45772;-79
2023/07/28 03:38:18;;;;;;;;;2.25;1.25;;;;;;;;5039365;28;46123;-80
2023/07/28 03:40:43;;;;;;;;;2.00;1.00;;;;;;;;5046638;28;45462;-79
2023/07/28 03:43:09;;;;;;;;;2.00;1.00;;;;;;;;5043872;28;45494;-80
2023/07/28 03:45:34;;;;;;;;;1.00;1.00;;;;;;;;5037674;28;45385;-80
2023/07/28 03:47:59;;;;;;;;;0.75;0.75;;;;;;;;5018964;28;48566;-78
2023/07/28 03:50:26;;;;;;;;;1.00;1.00;;;;;;;;5034404;28;45890;-80
2023/07/28 03:52:51;;;;;;;;;0.00;0.00;;;;;;;;5024402;28;45901;-80
2023/07/28 03:55:16;;;;;;;;;0.00;0.00;;;;;;;;5039432;28;45711;-79
2023/07/28 03:57:42;;;;;;;;;0.25;0.25;;;;;;;;5018858;28;46901;-79
2023/07/28 04:00:07;;;;;;;;;1.00;1.00;;;;;;;;5038337;28;46174;-80
2023/07/28 04:02:32;;;;;;;;;0.00;0.00;;;;;;;;5053347;28;45794;-79
2023/07/28 04:04:58;;;;;;;;;2.00;1.00;;;;;;;;5052398;28;45480;-78
2023/07/28 04:07:24;;;;;;;;;1.25;1.00;;;;;;;;5063141;28;46149;-80
2023/07/28 04:09:49;;;;;;;;;0.00;0.00;;;;;;;;5047921;28;45722;-81
2023/07/28 04:12:14;;;;;;;;;6.00;4.00;;;;;;;;5037097;28;45556;-79
2023/07/28 04:14:40;;;;;;;;;15.33;10.67;;;;;;;;5037459;28;45431;-77
2023/07/28 04:17:06;;;;;;;;;2.00;0.25;;;;;;;;5058739;28;46168;-79
2023/07/28 04:19:33;;;;;;;;;1.00;1.00;;;;;;;;5037807;28;45118;-83
2023/07/28 04:21:58;;;;;;;;;0.00;0.00;;;;;;;;5049313;28;45834;-79
2023/07/28 04:24:25;;;;;;;;;1.00;0.25;;;;;;;;5025253;28;45725;-80
2023/07/28 04:26:50;;;;;;;;;1.00;1.00;;;;;;;;5024401;28;45998;-79
2023/07/28 04:29:15;;;;;;;;;0.50;0.50;;;;;;;;5025216;28;45555;-80
2023/07/28 04:31:40;;;;;;;;;0.00;0.00;;;;;;;;5011513;28;45496;-80
2023/07/28 04:34:06;;;;;;;;;2.00;0.75;;;;;;;;5029293;28;45884;-80
2023/07/28 04:36:31;;;;;;;;;2.00;2.00;;;;;;;;5038886;28;45742;-78
2023/07/28 04:38:56;;;;;;;;;16.67;13.67;;;;;;;;5013558;28;45855;-78
2023/07/28 04:41:21;;;;;;;;;1.00;1.00;;;;;;;;5031752;28;45635;-77
2023/07/28 04:43:47;;;;;;;;;0.50;0.50;;;;;;;;5032352;28;45640;-80
2023/07/28 04:46:12;;;;;;;;;1.00;1.00;;;;;;;;5039339;28;46500;-81
2023/07/28 04:48:37;;;;;;;;;0.75;0.00;;;;;;;;5035864;28;46086;-80
2023/07/28 04:51:03;;;;;;;;;1.00;1.00;;;;;;;;5043842;28;45554;-79
2023/07/28 04:53:28;;;;;;;;;1.00;0.00;;;;;;;;5031333;28;45522;-79
2023/07/28 04:55:53;;;;;;;;;2.75;1.75;;;;;;;;5034597;28;47135;-80
2023/07/28 04:58:19;;;;;;;;;3.25;2.50;;;;;;;;5022726;28;45417;-80
2023/07/28 05:00:44;;;;;;;;;4.50;3.50;;;;;;;;5031561;28;46005;-81
2023/07/28 05:03:09;;;;;;;;;3.75;3.75;;;;;;;;5012140;28;46176;-79
2023/07/28 05:05:34;;;;;;;;;2.00;1.00;;;;;;;;5034232;28;45829;-80
2023/07/28 05:08:00;;;;;;;;;0.25;0.25;;;;;;;;5033342;28;45751;-80
2023/07/28 05:10:25;;;;;;;;;0.00;0.00;;;;;;;;5023452;28;45704;-78
2023/07/28 05:12:50;;;;;;;;;1.00;1.00;;;;;;;;5035180;28;45420;-79
2023/07/28 05:15:17;;;;;;;;;1.25;1.25;;;;;;;;5009483;28;46914;-79
2023/07/28 05:17:43;;;;;;;;;0.75;0.75;;;;;;;;5033757;28;45784;-80
2023/07/28 05:20:08;;;;;;;;;1.00;1.00;;;;;;;;5020854;28;45782;-79
2023/07/28 05:22:33;;;;;;;;;0.00;0.00;;;;;;;;5029674;28;45526;-79
2023/07/28 05:24:59;;;;;;;;;0.25;0.25;;;;;;;;5033778;28;46062;-79
2023/07/28 05:27:24;;;;;;;;;1.50;0.00;;;;;;;;5049586;28;45605;-79
2023/07/28 05:29:49;;;;;;;;;0.00;0.00;;;;;;;;5024162;28;45413;-76
2023/07/28 05:32:15;;;;;;;;;1.00;1.00;;;;;;;;5009620;28;46778;-77
2023/07/28 05:34:43;;;;;;;;;0.00;0.00;;;;;;;;5013389;28;48045;-76
2023/07/28 05:37:09;;;;;;;;;0.00;0.00;;;;;;;;5043117;28;45447;-76
2023/07/28 05:39:34;;;;;;;;;0.00;0.00;;;;;;;;5038949;28;45992;-76
2023/07/28 05:41:59;;;;;;;;;0.00;0.00;;;;;;;;5024950;28;45389;-76
2023/07/28 05:44:25;;;;;;;;;1.00;0.00;;;;;;;;5013264;28;47840;-76
2023/07/28 05:46:50;;;;;;;;;0.00;0.00;;;;;;;;5037716;28;45408;-75
2023/07/28 05:49:15;;;;;;;;;0.00;0.00;;;;;;;;5034885;28;45599;-76
2023/07/28 05:51:41;;;;;;;;;0.50;0.50;;;;;;;;5012777;28;45885;-78
2023/07/28 05:54:06;;;;;;;;;0.75;0.00;;;;;;;;5038726;28;46184;-76
2023/07/28 05:56:31;;;;;;;;;0.00;0.00;;;;;;;;5041919;28;45933;-77
2023/07/28 05:58:57;;;;;;;;;0.00;0.00;;;;;;;;5036635;28;45858;-76
2023/07/28 06:01:22;;;;;;;;;0.00;0.00;;;;;;;;5040776;28;45908;-76
2023/07/28 06:03:47;;;;;;;;;0.00;0.00;;;;;;;;5031381;28;46641;-76
2023/07/28 06:06:12;;;;;;;;;0.00;0.00;;;;;;;;5049554;28;45536;-77
2023/07/28 06:08:38;;;;;;;;;0.00;0.00;;;;;;;;5030806;28;45332;-79
2023/07/28 06:11:05;;;;;;;;;0.00;0.00;;;;;;;;5014737;28;46277;-76
2023/07/28 06:13:30;;;;;;;;;0.00;0.00;;;;;;;;5032948;28;45686;-76
2023/07/28 06:15:56;;;;;;;;;0.00;0.00;;;;;;;;5012610;28;45561;-78
2023/07/28 06:18:22;;;;;;;;;1.00;0.00;;;;;;;;5014745;28;45804;-79
2023/07/28 06:20:47;;;;;;;;;0.00;0.00;;;;;;;;5033426;28;46631;-77
2023/07/28 06:23:12;;;;;;;;;0.00;0.00;;;;;;;;5014462;28;47584;-74
2023/07/28 06:25:43;;;;;;;;;0.00;0.00;;;;;;;;5033716;28;45785;-73
2023/07/28 06:28:08;;;;;;;;;0.00;0.00;;;;;;;;5035855;28;45893;-70
2023/07/28 06:30:34;;;;;;;;;0.00;0.00;;;;;;;;5043294;28;45373;-72
2023/07/28 06:32:59;;;;;;;;;0.25;0.00;;;;;;;;5039549;28;45419;-73
2023/07/28 06:35:24;;;;;;;;;2.50;0.00;;;;;;;;5045009;28;45873;-73
2023/07/28 06:37:49;;;;;;;;;1.50;0.50;;;;;;;;5040097;28;45612;-74
2023/07/28 06:40:15;;;;;;;;;1.00;0.00;;;;;;;;5051869;28;45294;-75
2023/07/28 06:42:41;;;;;;;;;0.00;0.00;;;;;;;;5034273;28;48319;-74
2023/07/28 06:45:06;;;;;;;;;0.00;0.00;;;;;;;;5029858;28;45333;-74
2023/07/28 06:47:32;;;;;;;;;0.00;0.00;;;;;;;;5045360;28;45391;-73
2023/07/28 06:49:57;;;;;;;;;0.00;0.00;;;;;;;;5047544;28;45392;-75
2023/07/28 06:52:23;;;;;;;;;0.00;0.00;;;;;;;;5045569;28;45523;-74
2023/07/28 06:54:49;;;;;;;;;0.25;0.25;;;;;;;;5026343;28;45979;-75
2023/07/28 06:57:14;;;;;;;;;0.00;0.00;;;;;;;;5060664;28;45363;-73
2023/07/28 06:59:39;;;;;;;;;1.00;0.00;;;;;;;;5028621;28;45889;-73
2023/07/28 07:02:05;;;;;;;;;0.00;0.00;;;;;;;;5034719;28;45945;-74
2023/07/28 07:04:30;;;;;;;;;2.75;0.75;;;;;;;;5041392;28;45415;-73
2023/07/28 07:06:56;;;;;;;;;0.00;0.00;;;;;;;;5041323;28;45408;-73
2023/07/28 07:09:21;;;;;;;;;0.00;0.00;;;;;;;;5049809;28;45716;-74
2023/07/28 07:11:46;;;;;;;;;0.75;0.25;;;;;;;;5056005;28;45244;-73
2023/07/28 07:14:12;;;;;;;;;0.00;0.00;;;;;;;;5041448;28;45564;-73
2023/07/28 07:16:37;;;;;;;;;0.75;0.00;;;;;;;;5046297;28;45421;-73
2023/07/28 07:19:03;;;;;;;;;0.00;0.00;;;;;;;;5045972;28;45501;-73
2023/07/28 07:21:29;;;;;;;;;1.75;0.00;;;;;;;;5049168;28;45737;-72
2023/07/28 07:23:54;;;;;;;;;0.75;0.75;;;;;;;;5022441;28;45668;-73
2023/07/28 07:26:20;;;;;;;;;0.00;0.00;;;;;;;;5038689;28;45699;-74
2023/07/28 07:28:45;;;;;;;;;1.00;1.00;;;;;;;;5034942;28;46200;-74
2023/07/28 07:31:13;;;;;;;;;0.00;0.00;;;;;;;;5041152;28;46737;-74
2023/07/28 07:33:39;;;;;;;;;0.00;0.00;;;;;;;;5012881;28;46655;-73
2023/07/28 07:36:04;;;;;;;;;5.75;2.00;;;;;;;;5012486;28;45485;-75
2023/07/28 07:38:29;;;;;;;;;62.67;35.67;;;;;;;;5027803;28;45398;-74
2023/07/28 07:40:54;;;;;;;;;2.00;2.00;;;;;;;;5029271;28;45454;-75
2023/07/28 07:43:20;;;;;;;;;10.50;4.25;;;;;;;;5028061;28;45788;-73
2023/07/28 07:45:46;;;;;;;;;1.00;1.00;;;;;;;;5028704;28;45771;-74
2023/07/28 07:48:12;;;;;;;;;1.00;1.00;;;;;;;;5018611;28;47038;-74
2023/07/28 07:50:37;;;;;;;;;12.00;5.75;;;;;;;;5029287;28;46389;-74
2023/07/28 07:53:02;;;;;;;;;192.25;91.75;;;;;;;;5014136;28;45567;-75
2023/07/28 07:55:28;;;;;;;;;15.75;8.50;;;;;;;;5031947;28;45824;-75
2023/07/28 07:57:53;;;;;;;;;52.00;33.00;;;;;;;;5040603;28;45829;-76
2023/07/28 08:00:19;;;;;;;;;28.67;17.67;;;;;;;;5032841;28;45659;-74
2023/07/28 08:02:45;;;;;;;;;41.00;24.67;;;;;;;;5035529;28;45684;-73
2023/07/28 08:05:10;;;;;;;;;86.67;48.67;;;;;;;;5036970;28;45905;-73
2023/07/28 08:07:35;;;;;;;;;138.25;74.75;;;;;;;;5044947;28;45385;-76
2023/07/28 08:10:01;;;;;;;;;45.67;22.00;;;;;;;;5033617;28;45842;-75
2023/07/28 08:12:27;;;;;;;;;15.00;10.00;;;;;;;;5012966;28;45757;-74
2023/07/28 08:14:53;;;;;;;;;5.50;3.50;;;;;;;;5033347;28;45381;-75
2023/07/28 08:17:18;;;;;;;;;78.33;45.67;;;;;;;;5045239;28;45820;-75
2023/07/28 08:19:44;;;;;;;;;178.33;85.00;;;;;;;;5044434;28;45633;-74
2023/07/28 08:22:09;;;;;;;;;57.67;34.00;;;;;;;;5006442;28;45909;-75
2023/07/28 08:24:35;;;;;;;;;5.75;3.50;;;;;;;;5030089;28;46594;-76
2023/07/28 08:27:00;;;;;;;;;1.25;0.25;;;;;;;;5019879;28;45847;-75
2023/07/28 08:29:26;;;;;;;;;1.75;1.00;;;;;;;;5036051;28;46653;-76
2023/07/28 08:31:51;;;;;;;;;2.75;2.00;;;;;;;;5014283;28;45852;-74
2023/07/28 08:34:17;;;;;;;;;6.00;1.75;;;;;;;;5017625;28;45588;-75
2023/07/28 08:36:43;;;;;;;;;1.00;1.00;;;;;;;;5011231;28;46165;-74
2023/07/28 08:39:09;;;;;;;;;1.25;1.25;;;;;;;;5034916;28;46018;-75
2023/07/28 08:41:35;;;;;;;;;0.00;0.00;;;;;;;;5043431;28;45807;-75
2023/07/28 08:44:00;;;;;;;;;0.00;0.00;;;;;;;;5037048;28;45859;-74
2023/07/28 08:46:25;;;;;;;;;1.50;0.50;;;;;;;;5037807;28;45614;-75
2023/07/28 08:48:51;;;;;;;;;0.75;0.75;;;;;;;;5026822;28;48100;-74
2023/07/28 08:51:16;;;;;;;;;0.00;0.00;;;;;;;;5044523;28;45862;-74
2023/07/28 08:53:41;;;;;;;;;0.00;0.00;;;;;;;;5045230;28;45408;-75
2023/07/28 08:56:07;;;;;;;;;1.25;1.25;;;;;;;;5032797;28;45443;-74
2023/07/28 08:58:32;;;;;;;;;3.00;0.25;;;;;;;;5025626;28;47181;-74
2023/07/28 09:01:01;;;;;;;;;0.00;0.00;;;;;;;;5037202;28;45362;-74
2023/07/28 09:03:28;;;;;;;;;0.00;0.00;;;;;;;;5028108;28;44837;-74
2023/07/28 09:06:01;;;;;;;;;1.75;1.00;;;;;;;;5025251;28;46255;-75
2023/07/28 09:08:27;;;;;;;;;1.00;0.00;;;;;;;;5013967;28;45822;-75
2023/07/28 09:10:54;;;;;;;;;0.00;0.00;;;;;;;;5047347;28;45752;-76
2023/07/28 09:13:19;;;;;;;;;6.50;5.25;;;;;;;;5024014;28;45503;-75
2023/07/28 09:15:45;;;;;;;;;4.75;3.00;;;;;;;;5024498;28;45667;-75
2023/07/28 09:18:12;;;;;;;;;5.00;3.50;;;;;;;;5026629;28;47828;-76
2023/07/28 09:20:38;;;;;;;;;0.00;0.00;;;;;;;;5031161;28;45700;-77
2023/07/28 09:23:05;;;;;;;;;0.00;0.00;;;;;;;;5025455;28;45717;-76
2023/07/28 09:25:31;;;;;;;;;3.75;3.75;;;;;;;;5041718;28;45946;-76
2023/07/28 09:27:57;;;;;;;;;3.75;2.50;;;;;;;;5033653;28;45930;-74
2023/07/28 09:30:23;;;;;;;;;0.75;0.75;;;;;;;;5041230;28;45482;-78
2023/07/28 09:32:49;;;;;;;;;0.75;0.75;;;;;;;;5049183;28;45560;-77
2023/07/28 09:35:15;;;;;;;;;2.25;1.00;;;;;;;;5046335;28;45691;-77
2023/07/28 09:37:43;;;;;;;;;1.25;0.00;;;;;;;;5021051;28;45384;-77
2023/07/28 09:40:12;;;;;;;;;0.00;0.00;;;;;;;;5026828;28;45410;-77
2023/07/28 09:42:40;;;;;;;;;1.25;1.25;;;;;;;;5038683;28;45509;-77
2023/07/28 09:45:06;;;;;;;;;0.00;0.00;;;;;;;;5032907;28;45938;-76
2023/07/28 09:47:33;;;;;;;;;0.00;0.00;;;;;;;;5020818;28;47558;-77
2023/07/28 09:50:00;;;;;;;;;2.00;0.75;;;;;;;;5033754;28;45349;-73
2023/07/28 09:52:27;;;;;;;;;1.00;0.50;;;;;;;;5040211;28;45698;-73
2023/07/28 09:54:54;;;;;;;;;1.00;1.00;;;;;;;;5026757;28;45708;-73
2023/07/28 09:57:20;;;;;;;;;0.00;0.00;;;;;;;;5043429;28;45985;-73
2023/07/28 09:59:47;;;;;;;;;1.00;1.00;;;;;;;;5036128;28;45736;-72
2023/07/28 10:02:16;;;;;;;;;1.00;1.00;;;;;;;;5049126;28;45664;-74
2023/07/28 10:05:01;;;;;;;;;0.00;0.00;;;;;;;;5046315;28;45681;-76
2023/07/28 10:07:29;;;;;;;;;0.00;0.00;;;;;;;;5022713;28;46800;-77
2023/07/28 10:09:55;;;;;;;;;3.75;3.75;;;;;;;;5028252;28;45349;-79
2023/07/28 10:12:27;;;;;;;;;0.75;0.75;;;;;;;;5024170;28;44876;-76
2023/07/28 10:15:05;;;;;;;;;10.50;10.50;;;;;;;;5019382;28;46321;-75
2023/07/28 10:17:34;;;;;;;;;2.50;1.00;;;;;;;;5039248;28;45853;-74
2023/07/28 10:20:09;;;;;;;;;1.25;1.25;;;;;;;;5045872;28;45509;-74
2023/07/28 10:22:47;;;;;;;;;3.00;1.00;;;;;;;;5041291;28;45585;-77
2023/07/28 10:25:21;;;;;;;;;1.00;1.00;;;;;;;;5021059;28;45635;-77
2023/07/28 10:27:47;;;;;;;;;1.00;1.00;;;;;;;;5028641;28;46237;-76
2023/07/28 10:30:13;;;;;;;;;1.00;1.00;;;;;;;;5021586;28;45610;-78
2023/07/28 10:32:51;;;;;;;;;2.00;1.00;;;;;;;;5020316;28;45436;-77
2023/07/28 10:35:31;;;;;;;;;0.00;0.00;;;;;;;;5036718;28;45462;-76
2023/07/28 10:37:56;;;;;;;;;0.00;0.00;;;;;;;;5032363;28;45692;-75
2023/07/28 10:40:34;;;;;;;;;1.00;1.00;;;;;;;;5038276;28;46010;-77
2023/07/28 10:43:00;;;;;;;;;0.00;0.00;;;;;;;;5029351;28;45273;-76
2023/07/28 10:45:57;;;;;;;;;0.00;0.00;;;;;;;;5019021;28;45743;-77
2023/07/28 10:48:48;;;;;;;;;1.50;0.00;;;;;;;;5010896;28;45368;-78
2023/07/28 10:51:31;;;;;;;;;0.00;0.00;;;;;;;;5020946;28;45407;-77
2023/07/28 10:53:57;;;;;;;;;0.00;0.00;;;;;;;;5019082;28;45545;-76
2023/07/28 10:59:50;;;;;;;;;0.00;0.00;;;;;;;;4931223;28;46090;-78
2023/07/28 11:02:15;;;;;;;;;0.00;0.00;;;;;;;;5005693;28;45817;-76
2023/07/28 11:04:46;;;;;;;;;0.50;0.00;;;;;;;;5015224;28;45475;-75
2023/07/28 11:07:11;;;;;;;;;1.00;0.25;;;;;;;;5018351;28;45458;-75
2023/07/28 11:09:36;;;;;;;;;0.00;0.00;;;;;;;;5013921;28;46934;-76
2023/07/28 11:12:02;;;;;;;;;0.00;0.00;;;;;;;;5018683;28;45603;-75
2023/07/28 11:14:29;;;;;;;;;0.00;0.00;;;;;;;;5025248;28;45956;-75
2023/07/28 11:16:54;;;;;;;;;1.00;0.00;;;;;;;;5019115;28;45878;-75
2023/07/28 11:19:24;;;;;;;;;1.50;0.00;;;;;;;;5017806;28;46120;-74
2023/07/28 11:21:51;;;;;;;;;0.00;0.00;;;;;;;;5011939;28;45521;-76
2023/07/28 11:24:18;;;;;;;;;0.75;0.00;;;;;;;;5032092;28;45297;-75
2023/07/28 11:26:45;;;;;;;;;0.50;0.00;;;;;;;;5015193;28;45809;-75
2023/07/28 11:29:11;;;;;;;;;1.00;1.00;;;;;;;;5015511;28;45446;-76
2023/07/28 11:31:36;;;;;;;;;2.00;1.00;;;;;;;;5013920;28;45406;-75
2023/07/28 11:34:02;;;;;;;;;1.00;1.00;;;;;;;;5020573;28;45606;-75
2023/07/28 11:36:28;;;;;;;;;4.00;4.00;;;;;;;;5022169;28;45850;-75
2023/07/28 11:38:54;;;;;;;;;0.00;0.00;;;;;;;;5018508;28;45702;-74
2023/07/28 11:41:20;;;;;;;;;1.00;1.00;;;;;;;;5015031;28;46382;-77
2023/07/28 11:43:48;;;;;;;;;0.00;0.00;;;;;;;;5029341;28;45721;-75
2023/07/28 11:46:32;;;;;;;;;1.00;1.00;;;;;;;;5023057;28;45859;-74
2023/07/28 11:49:07;;;;;;;;;1.00;1.00;;;;;;;;5007276;28;47807;-74
2023/07/28 11:51:38;;;;;;;;;3.00;2.00;;;;;;;;5033087;28;45477;-77
2023/07/28 11:54:08;;;;;;;;;1.00;1.00;;;;;;;;5011577;28;46031;-79
2023/07/28 11:56:37;;;;;;;;;2.50;2.50;;;;;;;;5014930;28;45676;-80
2023/07/28 11:59:03;;;;;;;;;3.25;2.75;;;;;;;;5014997;28;45474;-79
2023/07/28 12:01:29;;;;;;;;;2.75;2.00;;;;;;;;5032380;28;45446;-78
2023/07/28 12:04:00;;;;;;;;;1.00;1.00;;;;;;;;5001509;28;45842;-80
2023/07/28 12:06:27;;;;;;;;;2.50;2.00;;;;;;;;5025469;28;45917;-78
2023/07/28 12:09:08;;;;;;;;;3.00;1.00;;;;;;;;5031168;28;46808;-79
2023/07/28 12:11:44;;;;;;;;;1.60;1.40;;;;;;;;5016187;28;45539;-79
2023/07/28 12:14:14;;;;;;;;;1.00;1.00;;;;;;;;5022033;28;45685;-79
2023/07/28 12:16:48;;;;;;;;;1.25;1.25;;;;;;;;5021626;28;45423;-81
2023/07/28 12:19:16;;;;;;;;;1.50;1.50;;;;;;;;5006515;28;45710;-80
2023/07/28 12:21:48;;;;;;;;;2.00;1.00;;;;;;;;5031115;28;45520;-79
2023/07/28 12:24:19;;;;;;;;;1.50;0.00;;;;;;;;5018227;28;45587;-78
2023/07/28 12:26:56;;;;;;;;;0.00;0.00;;;;;;;;5016568;28;45846;-78
2023/07/28 12:29:27;;;;;;;;;1.00;1.00;;;;;;;;5008477;28;46864;-80
2023/07/28 12:31:52;;;;;;;;;3.00;1.40;;;;;;;;5026536;28;45615;-78
2023/07/28 12:34:19;;;;;;;;;1.25;1.25;;;;;;;;5017595;28;45834;-81
2023/07/28 12:36:50;;;;;;;;;0.00;0.00;;;;;;;;5003130;28;45428;-82
2023/07/28 12:39:16;;;;;;;;;1.00;1.00;;;;;;;;5000037;28;45804;-84
2023/07/28 12:41:47;;;;;;;;;1.00;1.00;;;;;;;;5003542;28;45444;-80
2023/07/28 12:44:13;;;;;;;;;1.00;0.50;;;;;;;;5015194;28;45403;-83
2023/07/28 12:46:39;;;;;;;;;0.50;0.00;;;;;;;;5018282;28;45951;-83
2023/07/28 12:49:06;;;;;;;;;1.00;1.00;;;;;;;;5024426;28;47989;-82
2023/07/28 12:51:32;;;;;;;;;1.00;1.00;;;;;;;;5019252;28;44856;-81
2023/07/28 12:53:57;;;;;;;;;1.00;1.00;;;;;;;;5017107;28;45901;-83
2023/07/28 12:56:30;;;;;;;;;1.00;1.00;;;;;;;;5035165;28;45621;-85
2023/07/28 12:58:55;;;;;;;;;1.00;1.00;;;;;;;;5038344;28;45397;-84
2023/07/28 13:01:23;;;;;;;;;1.25;0.25;;;;;;;;5020008;28;44907;-84
2023/07/28 13:03:55;;;;;;;;;1.25;1.25;;;;;;;;5019593;28;45926;-83
2023/07/28 13:06:22;;;;;;;;;1.00;1.00;;;;;;;;5011548;28;45617;-85
2023/07/28 13:09:27;;;;;;;;;;;;;;;;;;;;;
2023/07/28 13:12:39;;;;;;;;;1.00;1.00;;;;;;;;4900371;28;45510;-84
2023/07/28 13:15:14;;;;;;;;;1.50;0.00;;;;;;;;4911035;28;46205;-84
2023/07/28 13:17:50;;;;;;;;;1.00;1.00;;;;;;;;5022929;28;45462;-85
2023/07/28 13:20:16;;;;;;;;;1.00;1.00;;;;;;;;5037244;28;45806;-84
2023/07/28 13:22:59;;;;;;;;;0.00;0.00;;;;;;;;5018580;28;45510;-80
2023/07/28 13:25:24;;;;;;;;;0.00;0.00;;;;;;;;5016578;28;45874;-81
2023/07/28 13:27:53;;;;;;;;;0.00;0.00;;;;;;;;5011841;28;46070;-81
2023/07/28 13:30:53;;;;;;;;;0.00;0.00;;;;;;;;5013149;28;46079;-82
2023/07/28 13:33:22;;;;;;;;;1.50;0.50;;;;;;;;4999291;28;46121;-81
2023/07/28 13:36:13;;;;;;;;;;;;;;;;;;;;;
2023/07/28 13:38:49;;;;;;;;;0.00;0.00;;;;;;;;5019066;28;74861;-82
2023/07/28 13:41:25;;;;;;;;;0.00;0.00;;;;;;;;5027716;28;46076;-82
2023/07/28 13:44:02;;;;;;;;;0.80;0.80;;;;;;;;5040572;28;45394;-82
2023/07/28 13:47:05;;;;;;;;;;;;;;;;;;;;;
2023/07/28 13:56:38;;;;;;;;;;;;;;;;;;;;;
2023/07/28 13:59:50;;;;;;;;;;;;;;;;;;;;;
2023/07/28 14:14:49;;;;;;;;;1.00;0.00;;;;;;;;4868183;29;45698;-81
2023/07/28 15:01:10;;;;;;;;;1.75;0.00;;;;;;;;4899939;28;45624;-80
2023/07/28 15:03:39;;;;;;;;;5.50;5.25;;;;;;;;4912707;28;44997;-80
2023/07/28 15:06:05;;;;;;;;;7.25;6.00;;;;;;;;4910421;28;46012;-81
2023/07/28 15:08:41;;;;;;;;;;;;;;;;;;;;;
2023/07/28 15:11:06;;;;;;;;;1.00;0.75;;;;;;;;4908779;28;66821;-79
2023/07/28 15:13:39;;;;;;;;;0.00;0.00;;;;;;;;4902989;28;45650;-78
2023/07/28 15:16:09;;;;;;;;;0.00;0.00;;;;;;;;4915143;28;46001;-80
2023/07/28 15:18:57;;;;;;;;;0.00;0.00;;;;;;;;4916124;28;45700;-81
2023/07/28 15:21:24;;;;;;;;;1.00;0.00;;;;;;;;4920676;28;45774;-82
2023/07/28 15:23:55;;;;;;;;;0.50;0.50;;;;;;;;4937983;28;46426;-82
2023/07/28 15:26:39;;;;;;;;;0.00;0.00;;;;;;;;4989324;28;45879;-82
2023/07/28 15:29:06;;;;;;;;;0.00;0.00;;;;;;;;4967486;28;45818;-80
2023/07/28 15:31:32;;;;;;;;;3.00;3.00;;;;;;;;5006402;28;45440;-80
2023/07/28 15:33:58;;;;;;;;;8.00;7.50;;;;;;;;5036660;28;45526;-81
2023/07/28 15:36:24;;;;;;;;;0.00;0.00;;;;;;;;5037522;28;46263;-80
2023/07/28 15:38:49;;;;;;;;;11.00;8.50;;;;;;;;5029627;28;45415;-80
2023/07/28 15:41:14;;;;;;;;;0.75;0.75;;;;;;;;5048007;28;45357;-82
2023/07/28 15:44:01;;;;;;;;;1.25;1.25;;;;;;;;5035192;28;45549;-84
2023/07/28 15:46:27;;;;;;;;;1.50;1.25;;;;;;;;5044542;28;46884;-81
2023/07/28 15:48:55;;;;;;;;;1.00;1.00;;;;;;;;5033317;28;45473;-82
2023/07/28 15:51:23;;;;;;;;;1.00;0.50;;;;;;;;5041591;28;45172;-78
2023/07/28 15:53:49;;;;;;;;;0.50;0.50;;;;;;;;5049975;28;44768;-82
2023/07/28 15:56:18;;;;;;;;;4.25;2.00;;;;;;;;5031478;28;46632;-82
2023/07/28 16:01:56;;;;;;;;;0.00;0.00;;;;;;;;5039751;28;44840;-79